Hovedside
METAR-TAF:

METAR-TAF

Lufthavner :

Khartoum, Sudan

breddegrad: 15-36N, lengdegrad: 032-33E, høyde over havet: 382 m

Gjeldene værobservasjon

Denne rapporten ble laget for 30 minutter siden, klokken 03:30 UTC
Vind 8 kt fra Sør
Temperatur 26°C
Luftfuktighet 74%
Trykk 1010 hPa
Sikt 10 km eller mer
ingen skyer under 1500 m og ingen bygeskyer

METAR: HSSS 200330Z 18008KT CAVOK 26/21 Q1010 NOSIG

Tid: 07:00 (04:00 UTC)

Varsel

Denne rapporten ble laget for 5 timer og 0 minutter siden, klokken 23:00 UTC
Varsel gyldig fra 20. klokken 00 UTC til 21. klokken 06 UTC
Vind 8 kt fra Sør-sørvest med vindkast opp mot 16 kt
Sikt 10 km eller mer
ingen skyer under 1500 m og ingen bygeskyer
Midlertidig
fra 20. klokken 02 UTC til 20. klokken 06 UTC
Sikt 10 km eller mer
Få skyer i en høyde av 4000 ft
Få skyer i en høyde av 14000 ft
Midlertidig
fra 20. klokken 06 UTC til 20. klokken 10 UTC
Sikt: 6000 m

TAF: HSSS 192300Z 2000/2106 21008G16KT CAVOK TEMPO 2002/2006 9999 FEW040 FEW140 TEMPO 2006/2010 6000 NSC

Værobservasjoner og værvarsel for over 4000 flyplasser (METAR- og TAF-rapporter).

Tilgjengelige stasjoner er representert av de røde og gule prikkene på kartet.

Hold musepekeren over prikken for å se navnet på stasjonen.

Klikk så for å se værobservasjoner og -varsler.

For å forandre kartet kan du klikke på den grønne knappen med svart kryss for å zoome inn, på den grønne knappen med strek for å zoome ut, eller på de grønne pilene for å se tilstøtende kart.


METAR-TAF: